createdAt,value
2023-10-23T00:01:42.033Z,61.13
2023-10-23T00:04:10.842Z,60.88
2023-10-23T00:06:38.072Z,60.72
2023-10-23T00:09:05.052Z,60.67
2023-10-23T00:11:32.692Z,60.82
2023-10-23T00:14:00.470Z,60.77
2023-10-23T00:16:27.705Z,60.81
2023-10-23T00:18:54.806Z,60.59
2023-10-23T00:21:21.878Z,60.61
2023-10-23T00:23:48.832Z,60.58
2023-10-23T00:26:15.868Z,60.54
2023-10-23T00:28:50.145Z,60.56
2023-10-23T00:31:17.232Z,60.56
2023-10-23T00:33:44.276Z,60.78
2023-10-23T00:36:11.295Z,60.68
2023-10-23T00:38:38.217Z,60.75
2023-10-23T00:41:05.139Z,60.76
2023-10-23T00:43:32.130Z,60.76
2023-10-23T00:46:01.476Z,60.52
2023-10-23T00:48:29.242Z,60.73
2023-10-23T00:51:02.052Z,60.79
2023-10-23T00:53:33.772Z,60.80
2023-10-23T00:56:05.603Z,60.88
2023-10-23T00:58:33.373Z,60.94
2023-10-23T01:01:02.752Z,61.17
2023-10-23T01:03:30.073Z,61.37
2023-10-23T01:05:57.281Z,61.32
2023-10-23T01:08:24.242Z,61.55
2023-10-23T01:10:51.284Z,61.58
2023-10-23T01:13:18.944Z,61.65
2023-10-23T01:15:45.976Z,61.62
2023-10-23T01:18:13.095Z,61.78
2023-10-23T01:20:41.553Z,61.65
2023-10-23T01:23:09.343Z,61.55
2023-10-23T01:25:36.273Z,61.50
2023-10-23T01:28:03.430Z,61.36
2023-10-23T01:30:31.013Z,61.39
2023-10-23T01:32:58.302Z,61.37
2023-10-23T01:35:25.580Z,61.44
2023-10-23T01:37:53.005Z,61.44
2023-10-23T01:40:20.492Z,61.34
2023-10-23T01:42:48.143Z,61.36
2023-10-23T01:45:15.258Z,61.26
2023-10-23T01:47:42.224Z,61.29
2023-10-23T01:50:09.411Z,61.16
2023-10-23T01:52:36.445Z,61.40
2023-10-23T01:55:03.591Z,61.44
2023-10-23T01:57:30.555Z,61.26
2023-10-23T02:00:05.255Z,61.42
2023-10-23T02:02:42.411Z,61.29
2023-10-23T02:05:09.693Z,61.46
2023-10-23T02:07:36.633Z,61.68
2023-10-23T02:10:03.672Z,61.51
2023-10-23T02:12:30.613Z,61.54
2023-10-23T02:14:57.623Z,61.58
2023-10-23T02:17:25.035Z,61.70
2023-10-23T02:19:52.007Z,61.96
2023-10-23T02:22:19.866Z,61.96
2023-10-23T02:24:47.431Z,61.97
2023-10-23T02:27:14.752Z,62.17
2023-10-23T02:29:42.100Z,62.15
2023-10-23T02:32:09.876Z,62.15
2023-10-23T02:34:38.443Z,62.39
2023-10-23T02:37:08.428Z,62.43
2023-10-23T02:39:35.395Z,62.79
2023-10-23T02:42:02.753Z,62.96
2023-10-23T02:44:29.788Z,62.95
2023-10-23T02:46:56.807Z,63.17
2023-10-23T02:49:24.475Z,63.08
2023-10-23T02:51:51.608Z,63.03
2023-10-23T02:54:18.738Z,63.08
2023-10-23T02:56:45.808Z,62.96
2023-10-23T02:59:13.617Z,62.82
2023-10-23T03:01:40.749Z,63.21
2023-10-23T03:04:08.024Z,63.08
2023-10-23T03:06:35.145Z,63.32
2023-10-23T03:09:02.258Z,63.31
2023-10-23T03:11:29.212Z,63.13
2023-10-23T03:13:56.151Z,63.02
2023-10-23T03:16:26.092Z,63.18
2023-10-23T03:18:54.169Z,63.00
2023-10-23T03:21:21.170Z,63.23
2023-10-23T03:23:49.267Z,63.19
2023-10-23T03:26:16.279Z,63.19
2023-10-23T03:28:43.226Z,63.24
2023-10-23T03:31:11.044Z,63.18
2023-10-23T03:33:38.792Z,63.43
2023-10-23T03:36:06.131Z,63.73
2023-10-23T03:38:33.244Z,63.73
2023-10-23T03:41:00.981Z,63.93
2023-10-23T03:43:28.190Z,64.17
2023-10-23T03:45:56.024Z,63.97
2023-10-23T03:48:23.174Z,64.21
2023-10-23T03:50:50.192Z,64.22
2023-10-23T03:53:17.134Z,64.20
2023-10-23T03:55:44.054Z,64.58
2023-10-23T03:58:11.011Z,64.54
2023-10-23T04:00:38.087Z,64.75
2023-10-23T04:03:05.132Z,64.83
2023-10-23T04:05:32.215Z,65.13
2023-10-23T04:07:59.568Z,65.00
2023-10-23T04:10:26.794Z,65.27
2023-10-23T04:12:53.871Z,65.36
2023-10-23T04:15:21.039Z,65.43
2023-10-23T04:17:48.813Z,65.36
2023-10-23T04:20:15.820Z,65.32
2023-10-23T04:22:43.374Z,65.12
2023-10-23T04:25:10.913Z,65.52
2023-10-23T04:27:38.043Z,65.54
2023-10-23T04:30:05.891Z,65.71
2023-10-23T04:32:32.980Z,65.67
2023-10-23T04:35:00.491Z,65.98
2023-10-23T04:37:27.453Z,65.85
2023-10-23T04:39:54.496Z,66.05
2023-10-23T04:42:21.527Z,65.80
2023-10-23T04:44:51.657Z,65.83
2023-10-23T04:47:18.594Z,65.83
2023-10-23T04:49:48.934Z,65.77
2023-10-23T04:52:15.865Z,65.87
2023-10-23T04:54:42.843Z,65.74
2023-10-23T04:57:09.768Z,65.68
2023-10-23T04:59:37.231Z,65.67
2023-10-23T05:02:04.545Z,65.56
2023-10-23T05:04:32.483Z,65.35
2023-10-23T05:07:00.332Z,65.53
2023-10-23T05:09:27.440Z,65.32
2023-10-23T05:11:54.447Z,65.35
2023-10-23T05:14:21.404Z,65.36
2023-10-23T05:16:48.386Z,65.64
2023-10-23T05:19:15.362Z,65.43
2023-10-23T05:21:42.395Z,65.74
2023-10-23T05:24:09.559Z,65.70
2023-10-23T05:26:36.627Z,65.74
2023-10-23T05:29:04.341Z,65.62
2023-10-23T05:31:31.701Z,65.76
2023-10-23T05:33:59.107Z,66.08
2023-10-23T05:36:26.405Z,65.89
2023-10-23T05:38:53.333Z,65.90
2023-10-23T05:41:20.295Z,66.04
2023-10-23T05:43:47.185Z,65.86
2023-10-23T05:46:14.276Z,66.13
2023-10-23T05:48:41.330Z,66.27
2023-10-23T05:51:08.262Z,66.51
2023-10-23T05:53:36.109Z,66.49
2023-10-23T05:56:05.822Z,66.67
2023-10-23T05:58:36.157Z,66.93
2023-10-23T06:01:11.288Z,66.99
2023-10-23T06:03:38.819Z,66.75
2023-10-23T06:06:06.465Z,66.93
2023-10-23T06:08:33.452Z,67.11
2023-10-23T06:11:03.295Z,67.12
2023-10-23T06:13:30.215Z,66.87
2023-10-23T06:16:04.017Z,66.88
2023-10-23T06:18:36.475Z,67.11
2023-10-23T06:21:06.216Z,67.16
2023-10-23T06:23:34.997Z,67.14
2023-10-23T06:26:01.940Z,67.44
2023-10-23T06:28:28.899Z,67.59
2023-10-23T06:30:55.810Z,67.45
2023-10-23T06:33:22.798Z,67.66
2023-10-23T06:36:00.301Z,67.57
2023-10-23T06:38:27.470Z,67.75
2023-10-23T06:40:54.650Z,67.78
2023-10-23T06:43:22.221Z,67.53
2023-10-23T06:46:01.783Z,67.68
2023-10-23T06:48:29.890Z,68.04
2023-10-23T06:50:56.916Z,67.96
2023-10-23T06:53:23.863Z,68.27
2023-10-23T06:55:55.777Z,68.20
2023-10-23T06:58:23.170Z,68.49
2023-10-23T07:00:50.342Z,68.28
2023-10-23T07:03:17.604Z,68.31
2023-10-23T07:05:44.754Z,68.62
2023-10-23T07:08:11.858Z,68.47
2023-10-23T07:10:39.596Z,68.67
2023-10-23T07:13:19.058Z,68.88
2023-10-23T07:15:49.557Z,68.98
2023-10-23T07:18:16.575Z,68.91
2023-10-23T07:20:58.499Z,68.85
2023-10-23T07:23:25.969Z,69.18
2023-10-23T07:26:02.386Z,69.10
2023-10-23T07:28:29.313Z,69.19
2023-10-23T07:30:56.250Z,69.13
2023-10-23T07:33:23.253Z,69.04
2023-10-23T07:35:59.848Z,68.88
2023-10-23T07:38:26.790Z,68.44
2023-10-23T07:40:53.775Z,68.45
2023-10-23T07:43:20.694Z,68.52
2023-10-23T07:45:50.398Z,68.56
2023-10-23T07:48:19.303Z,68.71
2023-10-23T07:50:46.201Z,68.43
2023-10-23T07:53:13.152Z,68.31
2023-10-23T07:55:40.078Z,68.70
2023-10-23T07:58:07.092Z,68.64
2023-10-23T08:00:34.109Z,68.51
2023-10-23T08:03:01.250Z,68.49
2023-10-23T08:05:28.471Z,67.97
2023-10-23T08:07:55.376Z,68.35
2023-10-23T08:10:22.347Z,68.38
2023-10-23T08:12:49.264Z,68.13
2023-10-23T08:15:17.056Z,68.36
2023-10-23T08:17:44.092Z,68.35
2023-10-23T08:20:11.415Z,68.27
2023-10-23T08:22:38.534Z,68.25
2023-10-23T08:25:06.144Z,68.05
2023-10-23T08:27:33.182Z,68.08
2023-10-23T08:30:00.186Z,68.02
2023-10-23T08:32:34.305Z,67.94
2023-10-23T08:35:12.749Z,67.92
2023-10-23T08:37:39.821Z,67.55
2023-10-23T08:40:07.643Z,67.37
2023-10-23T08:42:35.446Z,67.34
2023-10-23T08:45:03.440Z,67.24
2023-10-23T08:47:30.564Z,67.24
2023-10-23T08:50:00.841Z,66.96
2023-10-23T08:52:36.052Z,66.76
2023-10-23T08:55:05.875Z,66.24
2023-10-23T08:57:34.153Z,66.22
2023-10-23T09:00:01.077Z,65.95
2023-10-23T09:02:31.516Z,66.04
2023-10-23T09:04:58.777Z,66.10
2023-10-23T09:07:25.842Z,65.89
2023-10-23T09:09:52.828Z,65.65
2023-10-23T09:12:34.010Z,65.57
2023-10-23T09:15:33.420Z,65.41
2023-10-23T09:18:00.447Z,65.42
2023-10-23T09:20:28.843Z,65.43
2023-10-23T09:22:56.389Z,65.39
2023-10-23T09:25:25.557Z,65.51
2023-10-23T09:27:53.601Z,65.31
2023-10-23T09:30:23.713Z,65.54
2023-10-23T09:32:56.201Z,65.61
2023-10-23T09:35:29.244Z,65.48
2023-10-23T09:37:59.210Z,65.33
2023-10-23T09:40:27.928Z,65.11
2023-10-23T09:42:57.449Z,65.15
2023-10-23T09:45:25.292Z,64.98
2023-10-23T09:47:55.818Z,65.01
2023-10-23T09:50:23.704Z,65.07
2023-10-23T09:52:52.606Z,64.84
2023-10-23T09:55:21.898Z,64.78
2023-10-23T09:57:55.017Z,64.23
2023-10-23T10:00:24.629Z,64.08
2023-10-23T10:02:56.337Z,63.42
2023-10-23T10:05:34.370Z,63.01
2023-10-23T10:08:05.514Z,63.01
2023-10-23T10:10:34.013Z,62.56
2023-10-23T10:13:01.817Z,62.60
2023-10-23T10:15:29.276Z,61.85
2023-10-23T10:17:56.237Z,61.37
2023-10-23T10:20:24.943Z,61.44
2023-10-23T10:23:14.251Z,60.49
2023-10-23T10:25:44.330Z,60.27
2023-10-23T10:28:11.348Z,60.35
2023-10-23T10:30:52.553Z,60.15
2023-10-23T10:34:21.559Z,60.23
2023-10-23T10:36:47.095Z,60.76
2023-10-23T10:39:07.159Z,60.85
2023-10-23T10:41:36.857Z,60.59
2023-10-23T10:44:13.444Z,60.30
2023-10-23T10:46:43.735Z,60.25
2023-10-23T10:49:11.362Z,60.06
2023-10-23T10:51:38.600Z,59.46
2023-10-23T10:54:12.331Z,59.82
2023-10-23T10:56:39.292Z,59.47
2023-10-23T10:59:06.670Z,58.82
2023-10-23T11:01:34.407Z,59.07
2023-10-23T11:04:02.485Z,58.76
2023-10-23T11:06:30.699Z,58.39
2023-10-23T11:08:59.758Z,58.04
2023-10-23T11:11:29.724Z,57.94
2023-10-23T11:14:01.398Z,57.99
2023-10-23T11:18:57.891Z,57.42
2023-10-23T11:21:25.000Z,56.43
2023-10-23T11:23:56.995Z,56.14
2023-10-23T11:26:23.957Z,56.47
2023-10-23T11:28:50.902Z,55.94
2023-10-23T11:31:17.914Z,55.79
2023-10-23T11:33:45.218Z,56.29
2023-10-23T11:36:13.570Z,56.26
2023-10-23T11:38:40.505Z,55.18
2023-10-23T11:41:09.560Z,54.84
2023-10-23T11:43:36.509Z,55.08
2023-10-23T11:46:05.832Z,54.42
2023-10-23T11:48:32.842Z,54.31
2023-10-23T11:51:00.798Z,54.57
2023-10-23T11:53:29.947Z,54.07
2023-10-23T11:55:58.047Z,53.50
2023-10-23T11:58:28.716Z,53.31
2023-10-23T12:00:55.762Z,53.23
2023-10-23T12:03:22.932Z,53.31
2023-10-23T12:05:49.860Z,52.94
2023-10-23T12:08:16.942Z,53.17
2023-10-23T12:10:43.961Z,53.40
2023-10-23T12:13:10.933Z,53.50
2023-10-23T12:15:37.890Z,52.80
2023-10-23T12:18:05.488Z,52.84
2023-10-23T12:20:33.120Z,52.00
2023-10-23T12:23:00.062Z,52.26
2023-10-23T12:25:27.040Z,52.10
2023-10-23T12:27:54.074Z,52.13
2023-10-23T12:30:23.749Z,52.00
2023-10-23T12:33:16.283Z,51.81
2023-10-23T12:35:41.823Z,51.63
2023-10-23T12:38:09.107Z,51.93
2023-10-23T12:40:37.466Z,51.75
2023-10-23T12:43:05.368Z,51.78
2023-10-23T12:45:32.678Z,52.26
2023-10-23T12:47:59.915Z,52.05
2023-10-23T12:50:27.167Z,51.89
2023-10-23T12:52:54.163Z,51.39
2023-10-23T12:55:21.645Z,50.99
2023-10-23T12:57:48.804Z,50.74
2023-10-23T13:00:16.162Z,50.83
2023-10-23T13:02:44.161Z,51.59
2023-10-23T13:05:12.255Z,51.28
2023-10-23T13:07:39.333Z,51.23
2023-10-23T13:10:07.103Z,51.43
2023-10-23T13:12:35.687Z,50.71
2023-10-23T13:15:04.138Z,50.96
2023-10-23T13:17:31.523Z,50.97
2023-10-23T13:19:58.562Z,50.80
2023-10-23T13:22:45.862Z,50.11
2023-10-23T13:25:15.413Z,50.08
2023-10-23T13:27:42.403Z,50.36
2023-10-23T13:30:11.516Z,51.06
2023-10-23T13:32:39.977Z,50.74
2023-10-23T13:35:08.967Z,51.13
2023-10-23T13:37:36.243Z,50.43
2023-10-23T13:40:07.979Z,50.65
2023-10-23T13:42:36.097Z,50.17
2023-10-23T13:45:03.153Z,50.50
2023-10-23T13:47:30.126Z,50.77
2023-10-23T13:49:59.223Z,50.28
2023-10-23T13:52:26.630Z,50.19
2023-10-23T13:54:53.761Z,50.09
2023-10-23T13:57:20.741Z,50.55
2023-10-23T13:59:48.430Z,49.19
2023-10-23T14:02:15.399Z,49.56
2023-10-23T14:04:42.609Z,49.45
2023-10-23T14:07:12.964Z,49.96
2023-10-23T14:09:46.412Z,50.06
2023-10-23T14:12:15.715Z,49.96
2023-10-23T14:14:42.691Z,50.16
2023-10-23T14:17:09.714Z,50.03
2023-10-23T14:19:46.756Z,50.20
2023-10-23T14:22:19.149Z,50.64
2023-10-23T14:24:48.933Z,50.51
2023-10-23T14:27:16.098Z,50.86
2023-10-23T14:29:43.200Z,50.56
2023-10-23T14:32:10.424Z,50.86
2023-10-23T14:34:37.429Z,50.55
2023-10-23T14:37:04.598Z,50.29
2023-10-23T14:39:31.602Z,50.33
2023-10-23T14:41:58.534Z,50.54
2023-10-23T14:44:25.661Z,50.35
2023-10-23T14:46:53.396Z,50.52
2023-10-23T14:49:22.454Z,50.41
2023-10-23T14:51:52.342Z,50.24
2023-10-23T14:54:19.555Z,50.70
2023-10-23T14:56:47.223Z,51.10
2023-10-23T14:59:15.398Z,51.08
2023-10-23T15:01:42.561Z,50.83
2023-10-23T15:04:09.932Z,51.03
2023-10-23T15:06:36.918Z,51.58
2023-10-23T15:09:03.935Z,51.29
2023-10-23T15:11:30.880Z,51.75
2023-10-23T15:13:57.932Z,51.82
2023-10-23T15:16:25.040Z,51.63
2023-10-23T15:18:55.586Z,51.90
2023-10-23T15:21:23.378Z,51.73
2023-10-23T15:23:50.321Z,51.85
2023-10-23T15:26:17.371Z,51.94
2023-10-23T15:28:44.875Z,51.87
2023-10-23T15:31:12.361Z,52.31
2023-10-23T15:33:39.517Z,51.98
2023-10-23T15:36:07.271Z,51.96
2023-10-23T15:38:36.217Z,51.97
2023-10-23T15:41:15.278Z,52.28
2023-10-23T15:43:45.849Z,52.49
2023-10-23T15:46:15.752Z,52.18
2023-10-23T15:48:43.531Z,52.26
2023-10-23T15:51:11.552Z,52.08
2023-10-23T15:53:39.316Z,52.49
2023-10-23T15:56:07.109Z,52.20
2023-10-23T15:58:35.922Z,52.60
2023-10-23T16:01:05.090Z,52.31
2023-10-23T16:03:36.452Z,52.49
2023-10-23T16:06:09.034Z,52.85
2023-10-23T16:08:36.855Z,53.02
2023-10-23T16:11:04.113Z,53.37
2023-10-23T16:13:38.316Z,53.31
2023-10-23T16:16:15.747Z,53.35
2023-10-23T16:18:45.222Z,53.69
2023-10-23T16:21:16.188Z,53.95
2023-10-23T16:23:43.701Z,54.05
2023-10-23T16:26:11.302Z,54.24
2023-10-23T16:28:38.447Z,54.50
2023-10-23T16:31:05.524Z,55.45
2023-10-23T16:33:32.606Z,55.41
2023-10-23T16:35:59.511Z,55.52
2023-10-23T16:38:26.426Z,55.76
2023-10-23T16:40:53.350Z,56.00
2023-10-23T16:43:20.762Z,55.96
2023-10-23T16:45:47.736Z,56.14
2023-10-23T16:48:14.699Z,56.12
2023-10-23T16:50:41.719Z,56.12
2023-10-23T16:53:08.696Z,56.08
2023-10-23T16:55:35.754Z,56.21
2023-10-23T16:58:02.801Z,56.63
2023-10-23T17:00:29.731Z,56.89
2023-10-23T17:02:56.869Z,56.82
2023-10-23T17:05:23.830Z,56.78
2023-10-23T17:07:53.072Z,56.88
2023-10-23T17:10:20.504Z,56.89
2023-10-23T17:12:47.716Z,57.26
2023-10-23T17:15:14.687Z,57.31
2023-10-23T17:17:41.654Z,57.31
2023-10-23T17:20:11.121Z,57.42
2023-10-23T17:22:39.346Z,57.48
2023-10-23T17:25:09.265Z,57.41
2023-10-23T17:27:36.881Z,57.43
2023-10-23T17:30:04.373Z,57.45
2023-10-23T17:32:31.364Z,57.33
2023-10-23T17:34:58.365Z,57.53
2023-10-23T17:37:25.465Z,57.57
2023-10-23T17:39:52.401Z,57.63
2023-10-23T17:42:19.320Z,57.59
2023-10-23T17:44:46.260Z,57.57
2023-10-23T17:47:13.232Z,57.71
2023-10-23T17:49:40.441Z,57.83
2023-10-23T17:52:07.871Z,58.00
2023-10-23T17:54:35.068Z,57.98
2023-10-23T17:57:01.987Z,57.86
2023-10-23T17:59:29.028Z,58.18
2023-10-23T18:01:56.214Z,58.10
2023-10-23T18:04:23.304Z,58.33
2023-10-23T18:06:50.288Z,58.30
2023-10-23T18:09:17.696Z,58.24
2023-10-23T18:11:44.690Z,58.49
2023-10-23T18:14:13.247Z,58.63
2023-10-23T18:16:40.386Z,58.84
2023-10-23T18:19:07.717Z,58.90
2023-10-23T18:21:34.674Z,58.95
2023-10-23T18:24:01.601Z,59.15
2023-10-23T18:26:28.749Z,59.01
2023-10-23T18:28:57.967Z,59.45
2023-10-23T18:31:26.610Z,59.41
2023-10-23T18:33:53.649Z,59.22
2023-10-23T18:36:21.535Z,59.35
2023-10-23T18:38:49.777Z,59.53
2023-10-23T18:41:21.570Z,59.59
2023-10-23T18:43:49.440Z,59.62
2023-10-23T18:46:16.902Z,59.65
2023-10-23T18:48:46.633Z,59.67
2023-10-23T18:51:14.538Z,59.88
2023-10-23T18:53:42.111Z,59.75
2023-10-23T18:56:09.685Z,60.10
2023-10-23T18:58:36.915Z,59.90
2023-10-23T19:01:04.072Z,60.13
2023-10-23T19:03:31.568Z,60.09
2023-10-23T19:05:58.774Z,59.94
2023-10-23T19:08:26.384Z,60.03
2023-10-23T19:10:53.287Z,60.28
2023-10-23T19:13:21.400Z,60.27
2023-10-23T19:16:00.086Z,60.11
2023-10-23T19:18:30.925Z,60.16
2023-10-23T19:21:02.780Z,60.05
2023-10-23T19:23:30.048Z,60.09
2023-10-23T19:25:56.953Z,60.39
2023-10-23T19:28:24.113Z,60.39
2023-10-23T19:30:51.553Z,60.44
2023-10-23T19:33:18.966Z,60.58
2023-10-23T19:35:46.244Z,60.27
2023-10-23T19:38:13.599Z,60.58
2023-10-23T19:40:50.564Z,60.43
2023-10-23T19:43:20.688Z,60.17
2023-10-23T19:45:47.932Z,60.13
2023-10-23T19:48:15.315Z,60.57
2023-10-23T19:50:46.654Z,60.34
2023-10-23T19:53:16.116Z,60.12
2023-10-23T19:55:47.419Z,60.21
2023-10-23T19:58:16.899Z,60.02
2023-10-23T20:00:44.390Z,60.04
2023-10-23T20:03:11.464Z,60.39
2023-10-23T20:05:38.450Z,60.21
2023-10-23T20:08:05.747Z,59.91
2023-10-23T20:10:33.335Z,60.21
2023-10-23T20:13:00.667Z,60.10
2023-10-23T20:15:28.034Z,60.13
2023-10-23T20:17:58.382Z,60.39
2023-10-23T20:20:27.021Z,59.84
2023-10-23T20:22:54.137Z,60.33
2023-10-23T20:25:21.215Z,60.30
2023-10-23T20:27:48.492Z,60.29
2023-10-23T20:30:15.585Z,60.70
2023-10-23T20:32:42.788Z,60.72
2023-10-23T20:35:10.070Z,60.27
2023-10-23T20:37:37.195Z,60.18
2023-10-23T20:40:05.836Z,60.33
2023-10-23T20:42:34.557Z,60.41
2023-10-23T20:45:06.209Z,60.16
2023-10-23T20:47:33.796Z,60.54
2023-10-23T20:50:02.327Z,60.43
2023-10-23T20:52:30.955Z,60.67
2023-10-23T20:54:58.073Z,60.26
2023-10-23T20:57:25.367Z,60.66
2023-10-23T20:59:52.543Z,60.59
2023-10-23T21:02:19.496Z,60.75
2023-10-23T21:04:46.489Z,60.33
2023-10-23T21:07:13.529Z,60.86
2023-10-23T21:09:40.785Z,60.51
2023-10-23T21:12:08.294Z,60.91
2023-10-23T21:14:47.461Z,60.96
2023-10-23T21:17:15.873Z,61.09
2023-10-23T21:19:43.190Z,61.14
2023-10-23T21:22:11.074Z,61.26
2023-10-23T21:24:38.173Z,61.18
2023-10-23T21:27:05.182Z,61.34
2023-10-23T21:29:32.447Z,61.71
2023-10-23T21:32:00.702Z,61.73
2023-10-23T21:34:27.821Z,61.63
2023-10-23T21:36:54.840Z,61.83
2023-10-23T21:39:21.782Z,61.65
2023-10-23T21:41:48.686Z,61.88
2023-10-23T21:44:15.616Z,61.61
2023-10-23T21:46:42.672Z,61.61
2023-10-23T21:49:11.341Z,61.49
2023-10-23T21:51:39.220Z,62.35
2023-10-23T21:54:06.944Z,61.81
2023-10-23T21:57:19.410Z,61.74
2023-10-23T21:59:22.551Z,61.67
2023-10-23T22:01:53.391Z,61.88
2023-10-23T22:04:21.341Z,61.65
2023-10-23T22:06:48.538Z,61.54
2023-10-23T22:09:16.472Z,61.63
2023-10-23T22:11:44.349Z,61.61
2023-10-23T22:14:12.004Z,61.75
2023-10-23T22:16:39.086Z,61.54
2023-10-23T22:19:06.511Z,61.23
2023-10-23T22:21:33.587Z,61.71
2023-10-23T22:24:00.500Z,61.29
2023-10-23T22:26:27.528Z,61.33
2023-10-23T22:28:54.425Z,61.08
2023-10-23T22:31:21.398Z,61.59
2023-10-23T22:33:48.811Z,61.10
2023-10-23T22:36:16.009Z,61.24
2023-10-23T22:38:42.994Z,61.22
2023-10-23T22:41:09.986Z,61.58
2023-10-23T22:43:36.954Z,61.47
2023-10-23T22:46:04.294Z,61.76
2023-10-23T22:48:32.261Z,61.70
2023-10-23T22:50:59.596Z,61.45
2023-10-23T22:53:26.823Z,61.63
2023-10-23T22:55:55.616Z,61.67
2023-10-23T22:58:31.916Z,61.61
2023-10-23T23:00:59.905Z,61.20
2023-10-23T23:03:27.693Z,61.52
2023-10-23T23:06:03.866Z,61.91
2023-10-23T23:08:31.600Z,61.85
2023-10-23T23:10:58.745Z,61.80
2023-10-23T23:13:26.114Z,62.10
2023-10-23T23:15:53.598Z,62.38
2023-10-23T23:18:22.563Z,62.33
2023-10-23T23:20:52.768Z,62.52
2023-10-23T23:23:19.660Z,62.47
2023-10-23T23:25:46.562Z,62.08
2023-10-23T23:28:13.535Z,62.37
2023-10-23T23:30:40.564Z,62.31
2023-10-23T23:33:07.491Z,62.34
2023-10-23T23:35:34.610Z,61.92
2023-10-23T23:38:01.548Z,61.92
2023-10-23T23:40:28.520Z,62.00
2023-10-23T23:42:55.423Z,62.06
2023-10-23T23:45:22.337Z,61.92
2023-10-23T23:47:49.285Z,61.88
2023-10-23T23:50:16.256Z,61.60
2023-10-23T23:52:43.170Z,61.92
2023-10-23T23:55:10.126Z,62.08
2023-10-23T23:57:37.040Z,61.95
